Time;durP1;ratioP1;P1;durP2;ratioP2;P2;SDS_P1;SDS_P2;PMS_P1;PMS_P2;Temp;Humidity;BMP_temperature;BMP_pressure;BME280_temperature;BME280_humidity;BME280_pressure;Samples;Min_cycle;Max_cycle;Signal;HPM_P1;HPM_P2
2022/05/04 01:34:13;;;;;;;;;;;;;;;14.02;62.76;99587.66;5432428;26;20364;-91
2022/05/04 01:36:41;;;;;;;;;;;;;;;13.95;62.48;99593.09;5428714;26;35013;-91
2022/05/04 01:39:10;;;;;;;;;;;;;;;13.95;62.93;99596.56;5428941;26;33300;-91
2022/05/04 01:44:25;;;;;;;;;;;;;;;14.00;62.21;99592.06;5428809;26;33732;-91
2022/05/04 01:46:53;;;;;;;;;;;;;;;14.07;62.07;99596.19;5434199;26;34089;-91
2022/05/04 01:49:23;;;;;;;;;;;;;;;13.99;62.07;99592.97;5428347;26;34101;-91
2022/05/04 01:51:51;;;;;;;;;;;;;;;13.98;61.99;99593.00;5429425;26;32851;-91
2022/05/04 01:54:20;;;;;;;;;;;;;;;13.88;61.93;99597.63;5428346;26;34876;-90
2022/05/04 01:56:48;;;;;;;;;;;;;;;13.62;62.97;99596.56;5427934;26;34132;-91
2022/05/04 01:59:17;;;;;;;;;;;;;;;13.73;62.56;99600.66;5429741;26;34856;-91
2022/05/04 02:01:47;;;;;;;;;;;;;;;13.55;63.10;99600.25;5434482;26;32947;-90
2022/05/04 02:04:16;;;;;;;;;;;;;;;13.41;63.43;99591.97;5428856;26;34946;-91
2022/05/04 02:06:46;;;;;;;;;;;;;;;13.48;63.25;99590.03;5428208;26;34984;-91
2022/05/04 02:09:14;;;;;;;;;;;;;;;13.54;62.84;99585.53;5431099;26;33780;-91
2022/05/04 02:11:43;;;;;;;;;;;;;;;13.30;63.60;99588.78;5428274;26;32747;-91
2022/05/04 02:14:11;;;;;;;;;;;;;;;13.53;63.14;99586.44;5434446;26;34604;-90
2022/05/04 02:16:40;;;;;;;;;;;;;;;13.69;62.74;99586.00;5428137;26;35079;-90
2022/05/04 02:19:09;;;;;;;;;;;;;;;13.64;62.70;99581.75;5428588;26;34791;-92
2022/05/04 02:21:37;;;;;;;;;;;;;;;13.59;62.93;99590.59;5429042;26;32946;-91
2022/05/04 02:24:08;;;;;;;;;;;;;;;13.49;63.25;99592.59;5428787;26;33828;-91
2022/05/04 02:26:37;;;;;;;;;;;;;;;13.72;62.69;99588.50;5434275;26;35015;-91
2022/05/04 02:29:05;;;;;;;;;;;;;;;13.53;63.19;99586.44;5430227;26;34161;-91
2022/05/04 02:31:33;;;;;;;;;;;;;;;13.64;62.84;99586.97;5428799;26;32839;-91
2022/05/04 02:34:02;;;;;;;;;;;;;;;13.47;63.44;99580.50;5429131;26;34932;-91
2022/05/04 02:39:21;;;;;;;;;;;;;;;13.38;63.66;99592.88;5428336;26;34670;-90
2022/05/04 02:41:51;;;;;;;;;;;;;;;13.52;62.83;99597.72;5433071;26;33205;-91
2022/05/04 02:44:20;;;;;;;;;;;;;;;13.23;63.50;99598.47;5428513;26;34248;-90
2022/05/04 02:46:49;;;;;;;;;;;;;;;13.43;62.43;99600.56;5429039;26;35204;-91
2022/05/04 02:49:18;;;;;;;;;;;;;;;13.35;62.77;99602.53;5428756;26;34745;-90
2022/05/04 02:51:46;;;;;;;;;;;;;;;13.24;63.28;99603.63;5428808;26;33297;-91
2022/05/04 02:54:15;;;;;;;;;;;;;;;13.00;64.02;99602.50;5434366;26;34299;-91
2022/05/04 02:56:44;;;;;;;;;;;;;;;13.20;63.05;99599.41;5428074;26;33756;-91
2022/05/04 02:59:13;;;;;;;;;;;;;;;13.23;63.12;99599.31;5428325;26;35596;-90
2022/05/04 03:04:33;;;;;;;;;;;;;;;13.18;63.02;99595.13;5429032;26;34651;-91
2022/05/04 03:07:02;;;;;;;;;;;;;;;12.96;63.65;99597.41;5428160;26;33920;-91
2022/05/04 03:09:30;;;;;;;;;;;;;;;12.92;63.88;99598.38;5434099;26;34615;-90
2022/05/04 03:12:01;;;;;;;;;;;;;;;12.99;63.93;99590.34;5428027;26;33488;-91
2022/05/04 03:14:29;;;;;;;;;;;;;;;12.93;64.21;99595.72;5428715;26;33340;-90
2022/05/04 03:16:57;;;;;;;;;;;;;;;12.91;63.72;99597.50;5426943;26;33797;-90
2022/05/04 03:19:26;;;;;;;;;;;;;;;12.95;63.96;99598.28;5428281;26;33912;-91
2022/05/04 03:21:55;;;;;;;;;;;;;;;13.12;63.22;99603.97;5434005;26;33740;-91
2022/05/04 03:24:23;;;;;;;;;;;;;;;12.99;63.64;99605.13;5406542;26;34015;-91
2022/05/04 03:26:52;;;;;;;;;;;;;;;13.17;63.16;99602.09;5427776;26;34962;-90
2022/05/04 03:29:21;;;;;;;;;;;;;;;13.07;63.44;99604.94;5428677;26;34354;-92
2022/05/04 03:31:50;;;;;;;;;;;;;;;13.04;63.71;99608.47;5428077;26;33160;-90
2022/05/04 03:34:19;;;;;;;;;;;;;;;13.04;63.92;99605.88;5433051;26;33956;-91
2022/05/04 03:36:48;;;;;;;;;;;;;;;13.01;64.04;99613.78;5412179;26;34712;-90
2022/05/04 03:39:16;;;;;;;;;;;;;;;13.07;63.80;99611.03;5428005;26;34745;-90
2022/05/04 03:41:45;;;;;;;;;;;;;;;13.07;63.85;99613.63;5427524;26;33259;-91
2022/05/04 03:44:13;;;;;;;;;;;;;;;12.93;64.28;99621.78;5428490;26;34271;-91
2022/05/04 03:46:44;;;;;;;;;;;;;;;13.11;63.76;99617.84;5427510;26;35130;-91
2022/05/04 03:49:13;;;;;;;;;;;;;;;13.10;63.94;99621.38;5434001;26;34036;-91
2022/05/04 03:51:41;;;;;;;;;;;;;;;13.07;64.30;99626.66;5427247;26;33667;-91
2022/05/04 03:54:10;;;;;;;;;;;;;;;13.13;64.04;99618.69;5428551;26;33804;-90
2022/05/04 03:56:39;;;;;;;;;;;;;;;13.17;63.91;99615.09;5427615;26;34297;-91
2022/05/04 03:59:09;;;;;;;;;;;;;;;13.07;64.55;99613.63;5428239;26;33766;-90
2022/05/04 04:01:38;;;;;;;;;;;;;;;13.09;64.37;99622.25;5433296;26;32518;-90
2022/05/04 04:04:08;;;;;;;;;;;;;;;13.17;64.14;99620.31;5428213;26;34172;-90
2022/05/04 04:06:37;;;;;;;;;;;;;;;13.26;63.77;99626.19;5428174;26;34063;-91
2022/05/04 04:09:05;;;;;;;;;;;;;;;12.96;64.72;99621.69;5428375;26;34196;-91
2022/05/04 04:11:34;;;;;;;;;;;;;;;13.16;64.47;99629.00;5428050;26;33016;-90
2022/05/04 04:14:02;;;;;;;;;;;;;;;13.25;64.07;99633.16;5434347;26;34128;-90
2022/05/04 04:16:31;;;;;;;;;;;;;;;13.28;64.18;99630.50;5427396;26;34364;-91
2022/05/04 04:19:00;;;;;;;;;;;;;;;13.11;64.89;99630.88;5428576;26;34217;-91
2022/05/04 04:24:15;;;;;;;;;;;;;;;13.53;63.76;99642.87;5428276;26;33888;-91
2022/05/04 04:26:44;;;;;;;;;;;;;;;13.49;63.77;99647.34;5427998;26;33872;-91
2022/05/04 04:29:12;;;;;;;;;;;;;;;13.40;64.38;99647.56;5433612;26;34138;-91
2022/05/04 04:31:41;;;;;;;;;;;;;;;13.49;64.10;99646.50;5427237;26;33451;-90
2022/05/04 04:34:09;;;;;;;;;;;;;;;13.55;63.89;99652.38;5426844;26;34054;-91
2022/05/04 04:36:43;;;;;;;;;;;;;;;13.50;63.89;99649.03;5427149;26;34109;-91
2022/05/04 04:39:11;;;;;;;;;;;;;;;13.56;63.77;99653.25;5428655;26;33128;-91
2022/05/04 04:41:40;;;;;;;;;;;;;;;13.48;64.43;99652.56;5433351;26;33213;-90
2022/05/04 04:44:09;;;;;;;;;;;;;;;13.68;63.51;99662.50;5428372;26;33791;-90
2022/05/04 04:46:38;;;;;;;;;;;;;;;13.76;63.15;99661.38;5427640;26;34180;-91
2022/05/04 04:49:06;;;;;;;;;;;;;;;13.78;63.81;99650.94;5427712;26;33870;-91
2022/05/04 04:51:37;;;;;;;;;;;;;;;14.16;62.53;99655.09;5428338;26;33030;-91
2022/05/04 04:54:07;;;;;;;;;;;;;;;14.65;61.07;99658.91;5429430;26;34398;-91
2022/05/04 04:56:35;;;;;;;;;;;;;;;15.22;59.47;99654.50;5403035;26;784372;-90
2022/05/04 04:59:04;;;;;;;;;;;;;;;15.82;58.28;99654.25;5427605;26;34543;-91
2022/05/04 05:01:32;;;;;;;;;;;;;;;16.77;54.18;99655.97;5427977;26;33075;-91
2022/05/04 05:04:01;;;;;;;;;;;;;;;17.18;53.35;99654.34;5427987;26;34108;-92
2022/05/04 05:06:30;;;;;;;;;;;;;;;17.74;51.50;99654.62;5405954;26;35961;-91
2022/05/04 05:08:58;;;;;;;;;;;;;;;17.93;50.80;99658.19;5433810;26;34583;-91
2022/05/04 05:11:29;;;;;;;;;;;;;;;18.33;49.38;99659.88;5428004;26;33304;-92
2022/05/04 05:16:44;;;;;;;;;;;;;;;18.70;49.06;99671.31;5429924;26;33594;-92
2022/05/04 05:19:12;;;;;;;;;;;;;;;19.13;48.47;99671.91;5428015;26;34165;-93
2022/05/04 05:21:53;;;;;;;;;;;;;;;19.53;47.58;99669.09;5408109;26;33806;-92
2022/05/04 05:24:34;;;;;;;;;;;;;;;19.37;47.43;99663.75;5412998;26;35143;-91
2022/05/04 05:27:25;;;;;;;;;;;;;;;18.91;49.00;99661.56;5406516;26;34658;-91
2022/05/04 05:30:07;;;;;;;;;;;;;;;18.47;50.47;99667.13;5427875;26;33884;-92
2022/05/04 05:32:41;;;;;;;;;;;;;;;18.20;51.15;99671.88;5407181;26;34255;-92
2022/05/04 05:35:23;;;;;;;;;;;;;;;17.65;53.38;99663.75;5408203;26;34679;-92
2022/05/04 05:38:01;;;;;;;;;;;;;;;17.68;54.30;99669.69;5427651;26;35131;-92
2022/05/04 05:40:38;;;;;;;;;;;;;;;17.42;54.50;99670.81;5427924;26;35102;-91
2022/05/04 05:43:18;;;;;;;;;;;;;;;17.60;54.17;99676.22;5409956;26;36005;-91
2022/05/04 05:45:53;;;;;;;;;;;;;;;17.22;55.92;99668.16;5433233;26;34951;-91
2022/05/04 05:48:25;;;;;;;;;;;;;;;17.18;55.47;99672.69;5407402;26;35296;-92
2022/05/04 05:50:56;;;;;;;;;;;;;;;17.17;55.69;99675.34;5408383;26;34485;-92
2022/05/04 05:53:29;;;;;;;;;;;;;;;17.18;56.05;99671.81;5407013;26;33953;-92
2022/05/04 05:56:04;;;;;;;;;;;;;;;16.96;57.04;99672.69;5427929;26;34511;-91
2022/05/04 05:58:44;;;;;;;;;;;;;;;17.22;55.96;99674.25;5406752;26;33872;-92
2022/05/04 06:01:22;;;;;;;;;;;;;;;16.99;56.76;99676.97;5432591;26;34313;-92
2022/05/04 06:04:24;;;;;;;;;;;;;;;17.20;56.57;99680.47;5434220;26;33538;-92
2022/05/04 06:10:30;;;;;;;;;;;;;;;17.63;55.53;99686.56;5421172;26;34253;-92
2022/05/04 06:13:01;;;;;;;;;;;;;;;17.91;54.37;99697.63;5407179;26;35389;-92
2022/05/04 06:15:32;;;;;;;;;;;;;;;17.96;54.95;99693.97;5405064;26;33438;-93
2022/05/04 06:18:04;;;;;;;;;;;;;;;18.16;54.71;99693.91;5407095;26;33381;-92
2022/05/04 06:20:38;;;;;;;;;;;;;;;18.20;53.00;99703.37;5408263;26;34956;-93
2022/05/04 06:23:11;;;;;;;;;;;;;;;18.36;53.13;99695.66;5412734;26;35076;-91
2022/05/04 06:25:45;;;;;;;;;;;;;;;18.40;53.27;99701.63;5408018;26;35654;-91
2022/05/04 06:28:24;;;;;;;;;;;;;;;18.72;51.45;99697.50;5408355;26;35297;-92
2022/05/04 11:19:42;;;;;;;;;;;;;;;20.31;63.16;99678.22;5426730;26;34415;-88
2022/05/04 11:22:10;;;;;;;;;;;;;;;20.13;64.30;99684.47;5432404;26;34834;-88
2022/05/04 11:24:59;;;;;;;;;;;;;;;20.20;63.40;99678.81;5432504;26;33201;-89
2022/05/04 11:27:29;;;;;;;;;;;;;;;20.23;62.58;99677.78;5427181;26;33127;-89
2022/05/04 11:30:01;;;;;;;;;;;;;;;20.42;64.70;99683.78;5426578;26;33959;-90
2022/05/04 11:32:33;;;;;;;;;;;;;;;20.18;66.82;99680.66;5426649;26;34592;-90
2022/05/04 11:35:14;;;;;;;;;;;;;;;20.33;61.45;99678.16;5405582;26;34575;-90
2022/05/04 11:37:56;;;;;;;;;;;;;;;20.39;59.40;99677.81;5406254;26;34390;-90
2022/05/04 11:40:25;;;;;;;;;;;;;;;20.58;59.13;99672.41;5432490;26;35036;-89
2022/05/04 11:42:58;;;;;;;;;;;;;;;20.55;60.59;99665.53;5426006;26;34797;-89
2022/05/04 11:45:27;;;;;;;;;;;;;;;20.76;62.21;99673.22;5426174;26;33226;-89
2022/05/04 11:47:55;;;;;;;;;;;;;;;20.62;61.42;99666.06;5426970;26;33791;-89
2022/05/04 11:50:25;;;;;;;;;;;;;;;20.77;61.11;99673.09;5426412;26;34604;-89
2022/05/04 11:52:56;;;;;;;;;;;;;;;20.85;60.74;99668.28;5428612;26;35108;-90
2022/05/04 11:55:25;;;;;;;;;;;;;;;20.84;61.26;99663.06;5432417;26;33144;-89
2022/05/04 11:58:11;;;;;;;;;;;;;;;20.90;60.56;99670.66;5427011;26;33831;-89
2022/05/04 12:00:40;;;;;;;;;;;;;;;21.04;59.41;99680.41;5425736;26;34329;-90
2022/05/04 12:13:35;;;;;;;;;;;;;;;20.88;62.06;99672.53;5427044;26;34977;-89
2022/05/04 12:16:24;;;;;;;;;;;;;;;20.95;62.84;99679.16;5406440;26;33439;-90
2022/05/04 12:19:01;;;;;;;;;;;;;;;20.94;61.78;99695.91;5426904;26;34399;-90
2022/05/04 12:21:41;;;;;;;;;;;;;;;20.86;61.91;99691.06;5427462;26;33596;-89
2022/05/04 12:27:57;;;;;;;;;;;;;;;20.33;61.85;99697.44;5426573;26;35567;-90
2022/05/04 12:41:16;;;;;;;;;;;;;;;20.04;57.82;99683.16;5310659;27;35715;-91
2022/05/04 17:56:56;;;;;;;;;;;;;;;20.16;51.09;99647.44;5421768;26;19979;-90
2022/05/04 17:59:25;;;;;;;;;;;;;;;19.94;52.53;99666.16;5426951;26;33869;-89
2022/05/04 18:04:39;;;;;;;;;;;;;;;19.22;53.07;99660.09;5427556;26;35339;-89
2022/05/04 18:07:08;;;;;;;;;;;;;;;19.74;51.81;99656.63;5426689;26;34971;-90
2022/05/04 18:09:36;;;;;;;;;;;;;;;19.87;51.64;99659.50;5431339;26;33251;-89
2022/05/04 18:12:07;;;;;;;;;;;;;;;19.83;51.90;99670.19;5427026;26;34768;-90
2022/05/04 18:14:35;;;;;;;;;;;;;;;19.65;52.43;99673.75;5425148;26;34750;-89
2022/05/04 18:17:04;;;;;;;;;;;;;;;19.53;52.90;99671.72;5426273;26;34196;-89
2022/05/04 18:19:33;;;;;;;;;;;;;;;19.44;52.61;99673.03;5424886;26;32943;-90
2022/05/04 18:22:01;;;;;;;;;;;;;;;19.28;53.10;99675.59;5430412;26;33974;-90
2022/05/04 18:24:30;;;;;;;;;;;;;;;19.29;53.23;99679.91;5424527;26;34121;-89
2022/05/04 18:26:59;;;;;;;;;;;;;;;19.12;53.94;99672.84;5424170;26;33830;-90
2022/05/04 18:29:28;;;;;;;;;;;;;;;19.09;54.17;99675.63;5425597;26;33547;-89
2022/05/04 18:31:57;;;;;;;;;;;;;;;19.09;53.95;99685.31;5426007;26;34159;-89
2022/05/04 18:34:26;;;;;;;;;;;;;;;18.93;54.33;99688.66;5432761;26;34911;-89
2022/05/04 18:36:54;;;;;;;;;;;;;;;18.66;54.95;99692.56;5426691;26;33702;-89
2022/05/04 18:39:26;;;;;;;;;;;;;;;18.58;55.08;99695.53;5425855;26;34206;-89
2022/05/04 18:41:55;;;;;;;;;;;;;;;18.42;55.50;99694.53;5426411;26;33470;-90
2022/05/04 18:44:24;;;;;;;;;;;;;;;18.53;59.71;99693.12;5427143;26;33832;-90
2022/05/04 18:46:54;;;;;;;;;;;;;;;18.36;57.37;99694.78;5431762;26;33686;-90
2022/05/04 18:49:23;;;;;;;;;;;;;;;18.27;57.15;99696.09;5431875;26;33005;-89
2022/05/04 18:51:51;;;;;;;;;;;;;;;18.23;56.94;99690.09;5426677;26;34279;-90
2022/05/04 18:54:41;;;;;;;;;;;;;;;18.19;57.15;99696.41;5427125;26;35508;-89
2022/05/04 18:57:09;;;;;;;;;;;;;;;18.05;57.52;99693.53;5426264;26;33764;-89
2022/05/04 18:59:38;;;;;;;;;;;;;;;18.09;57.77;99693.34;5427018;26;33454;-89
2022/05/04 19:02:08;;;;;;;;;;;;;;;18.07;58.00;99689.94;5430069;26;34294;-90
2022/05/04 19:04:37;;;;;;;;;;;;;;;18.09;57.85;99697.72;5425920;26;33317;-89
2022/05/04 19:07:06;;;;;;;;;;;;;;;18.04;57.79;99702.34;5426599;26;34862;-89
2022/05/04 19:09:35;;;;;;;;;;;;;;;17.96;58.14;99699.19;5428429;26;33490;-89
2022/05/04 19:12:04;;;;;;;;;;;;;;;17.74;58.92;99691.38;5425909;26;34286;-89
2022/05/04 19:14:36;;;;;;;;;;;;;;;17.88;58.62;99696.91;5426579;26;35111;-90
2022/05/04 19:17:05;;;;;;;;;;;;;;;17.93;58.28;99697.56;5431094;26;33337;-90
2022/05/04 19:19:55;;;;;;;;;;;;;;;17.89;58.04;99696.84;5426245;26;33154;-89
2022/05/04 19:22:24;;;;;;;;;;;;;;;17.83;58.35;99701.47;5426256;26;34034;-89
2022/05/04 19:24:53;;;;;;;;;;;;;;;17.66;58.56;99695.19;5427351;26;33731;-89
2022/05/04 19:27:22;;;;;;;;;;;;;;;17.81;57.72;99708.59;5428314;26;34858;-91
2022/05/04 19:29:52;;;;;;;;;;;;;;;17.61;58.05;99701.50;5430595;26;33130;-89
2022/05/04 19:32:21;;;;;;;;;;;;;;;17.54;58.68;99710.56;5432277;26;34887;-89
2022/05/04 19:34:52;;;;;;;;;;;;;;;17.44;59.14;99710.94;5424136;26;35119;-90
2022/05/04 19:37:25;;;;;;;;;;;;;;;17.39;59.05;99712.88;5424869;26;34789;-88
2022/05/04 19:39:54;;;;;;;;;;;;;;;17.21;59.71;99704.00;5423060;26;34047;-89
2022/05/04 19:42:23;;;;;;;;;;;;;;;17.34;59.57;99709.59;5423544;26;35404;-90
2022/05/04 19:44:52;;;;;;;;;;;;;;;17.18;60.25;99714.62;5431430;26;34710;-89
2022/05/04 19:47:21;;;;;;;;;;;;;;;17.27;60.01;99716.00;5426208;26;33646;-89
2022/05/04 19:49:50;;;;;;;;;;;;;;;17.27;59.83;99722.09;5426467;26;32655;-89
2022/05/04 19:52:19;;;;;;;;;;;;;;;17.13;60.33;99721.81;5426133;26;33957;-88
2022/05/04 19:54:49;;;;;;;;;;;;;;;17.15;60.24;99727.84;5426245;26;34586;-89
2022/05/04 19:57:18;;;;;;;;;;;;;;;16.96;60.72;99738.22;5431588;26;33793;-88
2022/05/04 19:59:51;;;;;;;;;;;;;;;16.90;60.98;99735.81;5427088;26;33500;-89
2022/05/04 20:02:21;;;;;;;;;;;;;;;16.94;60.66;99736.56;5426633;26;34560;-89
2022/05/04 20:04:49;;;;;;;;;;;;;;;16.92;61.07;99741.84;5426205;26;34889;-89
2022/05/04 20:07:30;;;;;;;;;;;;;;;16.74;61.51;99750.37;5426801;26;34449;-89
2022/05/04 20:10:00;;;;;;;;;;;;;;;16.91;61.16;99760.25;5424684;26;34013;-90
2022/05/04 20:12:28;;;;;;;;;;;;;;;16.35;62.23;99766.63;5431937;26;33961;-89
2022/05/04 20:14:57;;;;;;;;;;;;;;;15.67;63.25;99774.13;5426262;26;33626;-90
2022/05/04 20:17:26;;;;;;;;;;;;;;;15.81;63.09;99783.34;5425728;26;33840;-89
2022/05/04 20:19:54;;;;;;;;;;;;;;;15.92;62.30;99781.19;5425652;26;33368;-89
2022/05/04 20:22:23;;;;;;;;;;;;;;;15.78;63.41;99789.53;5425695;26;34213;-89
2022/05/04 20:24:52;;;;;;;;;;;;;;;16.19;62.40;99795.13;5432504;26;34152;-89
2022/05/04 20:27:32;;;;;;;;;;;;;;;16.23;62.26;99801.94;5425807;26;34081;-90
2022/05/04 20:30:01;;;;;;;;;;;;;;;16.29;62.19;99803.53;5425796;26;33327;-89
2022/05/04 20:32:32;;;;;;;;;;;;;;;16.34;61.88;99809.44;5426275;26;35534;-90
2022/05/04 20:35:01;;;;;;;;;;;;;;;16.49;61.01;99806.28;5425909;26;34303;-89
2022/05/04 20:40:18;;;;;;;;;;;;;;;16.68;60.51;99811.72;5432035;26;34148;-90
2022/05/04 20:42:48;;;;;;;;;;;;;;;16.63;60.64;99808.41;5425639;26;34250;-89
2022/05/04 20:45:18;;;;;;;;;;;;;;;16.55;61.20;99818.28;5424157;26;34538;-90
2022/05/04 20:47:46;;;;;;;;;;;;;;;16.58;61.37;99811.19;5426389;26;34325;-90
2022/05/04 20:53:02;;;;;;;;;;;;;;;16.82;60.46;99821.72;5404086;26;34202;-90
2022/05/04 20:55:30;;;;;;;;;;;;;;;16.78;60.70;99817.47;5431247;26;34348;-89
2022/05/04 20:58:01;;;;;;;;;;;;;;;16.71;61.23;99816.81;5425525;26;34501;-89
2022/05/04 21:00:29;;;;;;;;;;;;;;;16.77;61.02;99815.78;5425335;26;34219;-90
2022/05/04 21:02:58;;;;;;;;;;;;;;;16.78;60.74;99825.31;5425790;26;34759;-90
2022/05/04 21:05:28;;;;;;;;;;;;;;;16.91;60.27;99820.50;5425528;26;34292;-89
2022/05/04 21:07:59;;;;;;;;;;;;;;;16.83;60.69;99819.03;5408896;26;32590;-89
2022/05/04 21:10:28;;;;;;;;;;;;;;;16.87;60.88;99816.31;5430371;26;33028;-91
2022/05/04 21:12:57;;;;;;;;;;;;;;;16.83;60.85;99821.66;5426088;26;34262;-89
2022/05/04 21:15:27;;;;;;;;;;;;;;;16.89;60.70;99817.97;5425991;26;34962;-89
2022/05/04 21:17:55;;;;;;;;;;;;;;;16.89;60.81;99812.72;5405140;26;32736;-89
2022/05/04 21:20:44;;;;;;;;;;;;;;;16.83;61.15;99815.56;5425893;26;34028;-89
2022/05/04 21:23:12;;;;;;;;;;;;;;;16.83;61.34;99810.31;5431585;26;34416;-88
2022/05/04 21:25:42;;;;;;;;;;;;;;;16.97;61.01;99808.03;5426077;26;33737;-89
2022/05/04 21:28:16;;;;;;;;;;;;;;;17.06;61.15;99812.09;5423926;26;33833;-88
2022/05/04 21:30:47;;;;;;;;;;;;;;;17.07;61.14;99813.78;5425872;26;32659;-88
2022/05/04 21:33:16;;;;;;;;;;;;;;;16.94;61.39;99813.41;5425720;26;34185;-89
2022/05/04 21:35:47;;;;;;;;;;;;;;;17.02;61.37;99820.97;5426246;26;33981;-89
2022/05/04 21:38:16;;;;;;;;;;;;;;;17.13;61.15;99818.81;5411131;26;33410;-89
2022/05/04 21:40:45;;;;;;;;;;;;;;;17.05;61.42;99833.97;5426542;26;33144;-89
2022/05/04 21:43:13;;;;;;;;;;;;;;;17.17;61.33;99827.41;5425825;26;33837;-89
2022/05/04 21:45:42;;;;;;;;;;;;;;;17.14;61.36;99838.00;5426455;26;33941;-89
2022/05/04 21:48:12;;;;;;;;;;;;;;;17.16;61.38;99844.06;5424746;26;33949;-89
2022/05/04 21:50:40;;;;;;;;;;;;;;;17.32;60.98;99846.94;5432175;26;32916;-89
2022/05/04 21:53:09;;;;;;;;;;;;;;;17.20;61.32;99845.62;5425436;26;34140;-89
2022/05/04 21:55:37;;;;;;;;;;;;;;;17.26;60.84;99846.25;5426661;26;35312;-90
2022/05/04 21:58:06;;;;;;;;;;;;;;;17.33;60.57;99854.75;5425947;26;33694;-90
2022/05/04 22:00:35;;;;;;;;;;;;;;;17.31;60.73;99846.09;5426791;26;33013;-91
2022/05/04 22:03:04;;;;;;;;;;;;;;;17.29;60.85;99840.03;5432640;26;34940;-89
2022/05/04 22:05:35;;;;;;;;;;;;;;;17.27;60.75;99840.09;5406008;26;33904;-89
2022/05/04 22:08:03;;;;;;;;;;;;;;;17.33;60.32;99833.78;5426676;26;36165;-88
2022/05/04 22:10:32;;;;;;;;;;;;;;;17.32;60.50;99825.97;5426084;26;34035;-89
2022/05/04 22:15:46;;;;;;;;;;;;;;;17.32;59.80;99834.66;5426169;26;34304;-89
2022/05/04 22:18:15;;;;;;;;;;;;;;;17.09;60.48;99835.56;5432426;26;33946;-89
2022/05/04 22:20:47;;;;;;;;;;;;;;;17.18;60.26;99829.09;5428046;26;32730;-90
2022/05/04 22:23:15;;;;;;;;;;;;;;;17.16;60.33;99833.56;5428313;26;34776;-89
2022/05/04 22:25:44;;;;;;;;;;;;;;;16.57;62.13;99833.03;5428769;26;34471;-89
2022/05/04 22:28:12;;;;;;;;;;;;;;;16.93;60.15;99832.66;5434274;26;34974;-89
2022/05/04 22:30:41;;;;;;;;;;;;;;;16.95;59.93;99832.59;5428626;26;33742;-89
2022/05/04 22:33:11;;;;;;;;;;;;;;;16.91;59.79;99831.84;5428446;26;33893;-89
2022/05/04 22:35:39;;;;;;;;;;;;;;;16.97;59.92;99836.88;5427666;26;33597;-89
2022/05/04 22:38:09;;;;;;;;;;;;;;;17.06;60.09;99841.78;5428088;26;34019;-89
2022/05/04 22:40:38;;;;;;;;;;;;;;;16.87;60.59;99837.28;5429946;26;33444;-89
2022/05/04 22:43:25;;;;;;;;;;;;;;;16.91;60.19;99844.94;5413773;26;33289;-90
2022/05/04 22:45:53;;;;;;;;;;;;;;;16.89;59.77;99841.56;5427858;26;34675;-89
2022/05/04 22:48:22;;;;;;;;;;;;;;;17.16;58.96;99841.44;5428243;26;34252;-89
2022/05/04 22:50:51;;;;;;;;;;;;;;;17.01;59.55;99842.84;5427359;26;34062;-89
2022/05/04 22:53:22;;;;;;;;;;;;;;;16.99;59.81;99845.53;5427834;26;34464;-89
2022/05/04 22:55:51;;;;;;;;;;;;;;;17.03;59.91;99836.66;5433909;26;34023;-90
2022/05/04 22:58:20;;;;;;;;;;;;;;;16.95;59.85;99837.84;5428073;26;35257;-89
2022/05/04 23:00:48;;;;;;;;;;;;;;;16.92;60.00;99840.59;5428176;26;33993;-89
2022/05/04 23:03:17;;;;;;;;;;;;;;;17.04;60.07;99832.25;5427661;26;34860;-89
2022/05/04 23:05:45;;;;;;;;;;;;;;;17.11;59.66;99832.91;5427762;26;34602;-88
2022/05/04 23:08:14;;;;;;;;;;;;;;;17.03;60.12;99838.41;5432732;26;33434;-89
2022/05/04 23:10:48;;;;;;;;;;;;;;;17.04;60.21;99838.34;5434487;26;33102;-91
2022/05/04 23:13:17;;;;;;;;;;;;;;;16.98;60.33;99830.72;5427863;26;33883;-90
2022/05/04 23:18:34;;;;;;;;;;;;;;;17.02;60.67;99834.94;5427933;26;34734;-90
2022/05/04 23:21:03;;;;;;;;;;;;;;;17.14;60.43;99823.13;5428553;26;33515;-89
2022/05/04 23:23:31;;;;;;;;;;;;;;;17.08;60.75;99828.59;5434171;26;34225;-90
2022/05/04 23:26:01;;;;;;;;;;;;;;;16.96;61.13;99821.19;5432569;26;34977;-90
2022/05/04 23:28:30;;;;;;;;;;;;;;;17.09;60.56;99821.59;5429860;26;34213;-89
2022/05/04 23:30:58;;;;;;;;;;;;;;;17.12;60.50;99829.34;5427720;26;32476;-90
2022/05/04 23:33:26;;;;;;;;;;;;;;;17.13;60.36;99820.56;5427278;26;34104;-90
2022/05/04 23:37:25;;;;;;;;;;;;;;;17.11;60.51;99832.91;5428710;26;35418;-90
2022/05/04 23:38:43;;;;;;;;;;;;;;;16.95;60.95;99832.59;5433993;26;35060;-89
2022/05/04 23:41:13;;;;;;;;;;;;;;;17.03;60.90;99822.69;5427933;26;34258;-89
2022/05/04 23:43:41;;;;;;;;;;;;;;;16.95;61.20;99815.09;5428469;26;34554;-89
2022/05/04 23:46:10;;;;;;;;;;;;;;;16.91;61.44;99823.97;5429338;26;33922;-90
2022/05/04 23:48:38;;;;;;;;;;;;;;;16.97;61.10;99826.37;5428008;26;34332;-89
2022/05/04 23:51:08;;;;;;;;;;;;;;;17.03;61.17;99827.91;5434296;26;33493;-89
2022/05/04 23:53:44;;;;;;;;;;;;;;;16.95;61.64;99827.34;5413083;26;37139;-89
2022/05/04 23:56:19;;;;;;;;;;;;;;;16.82;62.01;99834.84;5428392;26;34216;-89
2022/05/04 23:58:49;;;;;;;;;;;;;;;16.75;62.48;99834.16;5408311;26;36439;-90
